Time;durP1;ratioP1;P1;durP2;ratioP2;P2;SDS_P1;SDS_P2;PMS_P1;PMS_P2;Temp;Humidity;BMP_temperature;BMP_pressure;BME280_temperature;BME280_humidity;BME280_pressure;Samples;Min_cycle;Max_cycle;Signal;HPM_P1;HPM_P2
2021/06/24 00:01:59;;;;;;;7.80;7.07;;;;;;;19.94;68.59;100361.66;10392747;28;20065;-61
2021/06/24 00:07:01;;;;;;;8.13;6.68;;;;;;;19.85;68.83;100349.25;10389806;28;20049;-61
2021/06/24 00:12:04;;;;;;;9.40;7.22;;;;;;;19.73;69.12;100362.31;10394267;28;20046;-61
2021/06/24 00:17:05;;;;;;;7.75;6.97;;;;;;;19.76;69.09;100370.88;10397760;28;20053;-60
2021/06/24 00:22:07;;;;;;;8.65;7.20;;;;;;;19.66;70.24;100367.59;10390812;28;20087;-61
2021/06/24 00:27:08;;;;;;;8.98;6.55;;;;;;;19.66;69.74;100358.66;10411686;28;20048;-61
2021/06/24 00:32:10;;;;;;;7.43;6.60;;;;;;;19.68;69.75;100357.47;10396962;28;20467;-64
2021/06/24 00:37:12;;;;;;;11.20;7.47;;;;;;;19.47;70.44;100368.06;10399476;28;20045;-61
2021/06/24 00:42:13;;;;;;;7.53;6.82;;;;;;;19.48;69.83;100378.69;10396627;28;20502;-61
2021/06/24 00:47:15;;;;;;;8.23;7.38;;;;;;;19.47;70.17;100373.47;10393387;28;20045;-61
2021/06/24 00:52:17;;;;;;;9.80;7.00;;;;;;;19.16;71.23;100369.78;10394081;28;20208;-62
2021/06/24 00:57:20;;;;;;;13.82;9.18;;;;;;;19.35;70.53;100359.53;10388436;28;20050;-61
2021/06/24 01:02:22;;;;;;;7.85;7.15;;;;;;;19.26;70.69;100353.38;10394990;28;20049;-62
2021/06/24 01:07:24;;;;;;;8.88;8.02;;;;;;;19.04;71.53;100345.03;10392494;28;20052;-61
2021/06/24 01:12:25;;;;;;;10.20;8.43;;;;;;;18.91;72.40;100352.84;10379217;28;20397;-61
2021/06/24 01:17:27;;;;;;;9.40;8.20;;;;;;;19.15;71.23;100329.47;10392858;28;20045;-61
2021/06/24 01:22:29;;;;;;;8.68;7.88;;;;;;;19.08;71.24;100327.50;10402262;28;20050;-61
2021/06/24 01:27:31;;;;;;;8.73;7.88;;;;;;;19.26;70.24;100342.59;10399187;28;20061;-61
2021/06/24 01:32:33;;;;;;;9.98;7.82;;;;;;;19.33;69.95;100342.69;10387007;28;20045;-62
2021/06/24 01:37:35;;;;;;;8.23;7.18;;;;;;;19.28;70.00;100334.31;10389938;28;20052;-60
2021/06/24 01:42:36;;;;;;;9.40;7.80;;;;;;;19.17;70.14;100340.91;10392826;28;20424;-60
2021/06/24 01:47:38;;;;;;;9.25;8.32;;;;;;;19.11;70.35;100345.19;10399769;28;20581;-60
2021/06/24 01:52:41;;;;;;;9.57;8.68;;;;;;;18.96;70.97;100336.16;10398202;28;20049;-60
2021/06/24 01:57:42;;;;;;;10.03;7.63;;;;;;;19.18;70.62;100334.50;10389125;28;20042;-62
2021/06/24 02:02:44;;;;;;;11.93;8.88;;;;;;;19.19;70.42;100331.63;10398047;28;20049;-60
2021/06/24 02:07:46;;;;;;;8.27;7.35;;;;;;;19.21;70.35;100339.56;10393599;28;20049;-60
2021/06/24 02:12:47;;;;;;;10.07;8.25;;;;;;;19.13;70.12;100342.31;10400506;28;20053;-60
2021/06/24 02:17:49;;;;;;;10.07;9.18;;;;;;;19.03;70.21;100327.16;10386352;28;20050;-60
2021/06/24 02:22:51;;;;;;;8.43;7.57;;;;;;;18.96;70.47;100326.22;10390156;28;20061;-60
2021/06/24 02:27:53;;;;;;;11.68;8.85;;;;;;;18.90;70.89;100332.31;10385754;28;20758;-60
2021/06/24 02:32:55;;;;;;;11.40;9.35;;;;;;;18.81;71.42;100328.78;10386271;28;20065;-60
2021/06/24 02:37:56;;;;;;;8.73;7.93;;;;;;;18.88;71.09;100318.97;10390021;28;20049;-61
2021/06/24 02:42:58;;;;;;;11.38;8.68;;;;;;;18.95;70.30;100313.75;10383387;28;20072;-61
2021/06/24 02:48:00;;;;;;;9.27;8.30;;;;;;;18.96;69.95;100317.25;10397329;28;20057;-61
2021/06/24 02:53:02;;;;;;;8.75;7.72;;;;;;;18.96;69.93;100326.22;10392817;28;20110;-61
2021/06/24 02:58:03;;;;;;;11.35;8.70;;;;;;;18.69;71.25;100319.38;10392408;28;20053;-61
2021/06/24 03:03:05;;;;;;;9.40;8.43;;;;;;;18.76;71.15;100314.13;10398854;28;20056;-60
2021/06/24 03:08:06;;;;;;;9.65;8.57;;;;;;;18.76;71.18;100314.13;10385647;28;20076;-61
2021/06/24 03:13:08;;;;;;;9.07;8.18;;;;;;;18.85;70.86;100315.78;10391284;28;20057;-60
2021/06/24 03:18:10;;;;;;;9.45;8.38;;;;;;;18.77;71.25;100310.44;10391362;28;20509;-61
2021/06/24 03:23:12;;;;;;;9.88;8.82;;;;;;;18.93;70.44;100305.00;10380940;28;20045;-61
2021/06/24 03:28:13;;;;;;;8.55;7.85;;;;;;;18.87;70.33;100303.84;10393140;28;20052;-60
2021/06/24 03:33:15;;;;;;;10.25;8.30;;;;;;;18.93;69.85;100305.00;10388018;28;20052;-60
2021/06/24 03:38:17;;;;;;;11.35;8.35;;;;;;;18.89;70.27;100307.19;10386701;28;20361;-60
2021/06/24 03:43:19;;;;;;;9.93;8.10;;;;;;;18.78;70.84;100317.50;10390094;28;20055;-60
2021/06/24 03:48:20;;;;;;;10.60;7.68;;;;;;;18.92;70.53;100321.34;10392811;28;20586;-61
2021/06/24 03:53:22;;;;;;;10.20;8.82;;;;;;;19.01;69.84;100314.91;10402166;28;20052;-60
2021/06/24 03:58:23;;;;;;;10.20;8.43;;;;;;;19.01;69.79;100323.81;10390309;28;20509;-61
2021/06/24 04:03:25;;;;;;;11.85;7.95;;;;;;;19.05;69.54;100330.53;10374449;28;20065;-60
2021/06/24 04:08:27;;;;;;;8.90;8.10;;;;;;;19.13;70.08;100326.13;10372735;28;20140;-60
2021/06/24 04:13:37;;;;;;;10.35;8.55;;;;;;;19.16;69.60;100333.88;10384142;28;20140;-61
2021/06/24 04:18:38;;;;;;;9.13;8.20;;;;;;;19.18;69.13;100331.81;10383560;28;20529;-61
2021/06/24 04:23:40;;;;;;;10.73;8.73;;;;;;;19.19;69.30;100330.81;10384229;28;20045;-62
2021/06/24 04:28:41;;;;;;;11.02;8.65;;;;;;;19.23;69.17;100324.88;10387572;28;20054;-60
2021/06/24 04:33:43;;;;;;;9.18;8.27;;;;;;;19.20;69.16;100317.13;10389352;28;20054;-66
2021/06/24 04:38:44;;;;;;;9.82;9.02;;;;;;;19.24;69.18;100314.91;10385870;28;20050;-61
2021/06/24 04:43:46;;;;;;;9.75;8.77;;;;;;;19.23;69.13;100321.31;10391162;28;20053;-61
2021/06/24 04:48:48;;;;;;;14.07;8.77;;;;;;;19.25;68.89;100313.91;10400046;28;20064;-61
2021/06/24 04:53:49;;;;;;;9.57;8.65;;;;;;;19.21;69.48;100315.28;10388923;23;20049;-61
2021/06/24 04:58:51;;;;;;;8.77;7.95;;;;;;;19.17;69.72;100308.53;10366156;28;20053;-63
2021/06/24 05:03:52;;;;;;;12.15;8.98;;;;;;;19.22;69.29;100311.56;10336979;28;20057;-62
2021/06/24 05:08:54;;;;;;;10.95;7.95;;;;;;;19.21;69.28;100309.88;10362732;28;20536;-62
2021/06/24 05:13:56;;;;;;;11.95;8.30;;;;;;;19.14;70.20;100311.59;10361371;28;20038;-62
2021/06/24 05:18:57;;;;;;;9.80;8.20;;;;;;;19.19;70.33;100314.63;10363310;28;20045;-62
2021/06/24 05:23:59;;;;;;;11.80;9.77;;;;;;;19.19;69.87;100309.22;10363201;28;20054;-62
2021/06/24 05:29:01;;;;;;;9.43;8.40;;;;;;;19.15;69.63;100302.50;10363886;28;20072;-61
2021/06/24 05:34:04;;;;;;;10.75;8.13;;;;;;;19.16;69.70;100310.41;10368426;28;20042;-62
2021/06/24 05:39:06;;;;;;;10.63;9.52;;;;;;;19.17;69.69;100306.72;10365364;28;20050;-61
2021/06/24 05:44:07;;;;;;;10.60;8.98;;;;;;;19.20;70.61;100308.19;10372861;28;20534;-62
2021/06/24 05:49:09;;;;;;;9.75;8.75;;;;;;;19.26;70.86;100304.81;10369022;28;20069;-63
2021/06/24 05:54:11;;;;;;;9.80;8.88;;;;;;;19.25;71.10;100295.00;10362890;28;20050;-62
2021/06/24 05:59:12;;;;;;;11.32;10.13;;;;;;;19.17;71.97;100289.66;10374415;28;20046;-62
2021/06/24 06:04:15;;;;;;;11.27;10.10;;;;;;;19.29;72.82;100293.66;10372459;28;20049;-62
2021/06/24 06:09:17;;;;;;;11.23;10.03;;;;;;;19.24;72.72;100302.25;10381582;28;20096;-63
2021/06/24 06:14:18;;;;;;;11.00;9.90;;;;;;;19.28;73.05;100294.66;10353540;28;20044;-59
2021/06/24 06:19:20;;;;;;;10.57;9.48;;;;;;;19.32;73.70;100301.38;10348776;28;20044;-63
2021/06/24 06:24:22;;;;;;;11.18;10.07;;;;;;;19.27;73.85;100292.97;10348460;28;20053;-63
2021/06/24 06:29:24;;;;;;;10.65;9.35;;;;;;;19.29;73.64;100298.19;10352765;28;20196;-62
2021/06/24 06:34:25;;;;;;;13.23;10.73;;;;;;;19.27;74.40;100298.38;10347162;28;20135;-64
2021/06/24 06:39:27;;;;;;;11.88;10.68;;;;;;;19.29;74.79;100301.75;10347945;28;20234;-63
2021/06/24 06:44:28;;;;;;;11.95;10.75;;;;;;;19.31;74.54;100307.78;10349614;28;20050;-62
2021/06/24 06:49:30;;;;;;;11.40;10.20;;;;;;;19.31;74.97;100307.78;10349855;28;20060;-62
2021/06/24 06:54:32;;;;;;;12.40;11.38;;;;;;;19.22;75.17;100301.59;10348268;28;20049;-62
2021/06/24 06:59:35;;;;;;;10.55;9.55;;;;;;;19.36;74.94;100305.38;10348113;28;20050;-62
2021/06/24 07:04:41;;;;;;;12.88;10.88;;;;;;;19.24;75.02;100312.22;10356489;28;20059;-63
2021/06/24 07:09:43;;;;;;;11.60;10.48;;;;;;;19.35;75.42;100309.13;10336567;28;20072;-63
2021/06/24 07:14:45;;;;;;;12.05;10.60;;;;;;;19.40;75.66;100312.09;10345522;28;20045;-64
2021/06/24 07:19:46;;;;;;;13.65;12.40;;;;;;;19.41;76.48;100313.78;10350651;28;20054;-62
2021/06/24 07:24:48;;;;;;;12.20;11.05;;;;;;;19.51;76.33;100320.81;10347219;28;20057;-62
2021/06/24 07:29:50;;;;;;;11.60;10.50;;;;;;;19.50;75.67;100311.00;10346148;28;20787;-62
2021/06/24 07:34:51;;;;;;;13.10;11.90;;;;;;;19.57;77.00;100312.81;10347777;28;20057;-62
2021/06/24 07:39:53;;;;;;;13.05;11.10;;;;;;;19.61;76.23;100313.31;10346605;28;20057;-61
2021/06/24 07:44:54;;;;;;;14.02;12.75;;;;;;;19.70;76.26;100309.50;10345823;28;20053;-62
2021/06/24 07:49:56;;;;;;;13.85;11.73;;;;;;;19.77;75.86;100312.31;10340499;28;20935;-65
2021/06/24 07:54:58;;;;;;;12.90;11.70;;;;;;;19.75;75.71;100315.19;10326036;28;20392;-64
2021/06/24 07:59:59;;;;;;;13.70;12.32;;;;;;;19.78;75.23;100312.16;10346942;28;20051;-63
2021/06/24 08:05:04;;;;;;;13.98;12.57;;;;;;;19.69;75.78;100324.03;10351803;28;20052;-63
2021/06/24 08:10:06;;;;;;;;;;;;;;;19.69;76.52;100320.50;10349024;28;20061;-62
2021/06/24 08:15:09;;;;;;;13.45;12.07;;;;;;;19.68;76.30;100324.19;10349709;28;19962;-62
2021/06/24 08:20:13;;;;;;;12.25;11.15;;;;;;;19.80;76.45;100322.78;10348622;28;20434;-64
2021/06/24 08:25:14;;;;;;;11.82;10.73;;;;;;;19.87;76.01;100328.31;10349611;28;20052;-63
2021/06/24 08:30:18;;;;;;;12.93;11.73;;;;;;;19.89;77.45;100323.53;10331304;28;20388;-63
2021/06/24 08:35:20;;;;;;;11.85;10.63;;;;;;;19.96;76.17;100329.91;10348858;28;20080;-64
2021/06/24 08:40:22;;;;;;;14.02;11.93;;;;;;;20.00;76.21;100327.69;10329735;28;20080;-63
2021/06/24 08:45:24;;;;;;;13.50;12.20;;;;;;;20.09;76.79;100326.59;10345698;28;20065;-65
2021/06/24 08:50:27;;;;;;;12.98;11.43;;;;;;;20.04;76.19;100337.09;10352545;28;20049;-64
2021/06/24 08:55:36;;;;;;;13.83;12.47;;;;;;;20.03;77.76;100338.97;10351646;28;20414;-65
2021/06/24 09:00:38;;;;;;;13.32;12.13;;;;;;;20.00;77.58;100339.31;10352459;28;20053;-63
2021/06/24 09:05:53;;;;;;;12.52;11.43;;;;;;;19.87;76.96;100344.50;10352402;28;20061;-62
2021/06/24 09:11:12;;;;;;;12.48;11.40;;;;;;;19.83;78.34;100348.59;10348725;28;20060;-63
2021/06/24 09:16:34;;;;;;;12.40;11.25;;;;;;;19.85;79.21;100351.97;10333172;28;20060;-62
2021/06/24 09:21:36;;;;;;;14.18;12.95;;;;;;;19.88;79.16;100346.19;10350739;28;20501;-64
2021/06/24 09:26:38;;;;;;;11.93;10.80;;;;;;;19.85;78.59;100352.78;10349354;28;20058;-65
2021/06/24 09:31:43;;;;;;;;;;;;;;;19.81;79.46;100350.66;10349255;28;20129;-62
2021/06/24 09:36:46;;;;;;;12.93;11.80;;;;;;;19.80;78.67;100359.75;10352092;28;19921;-61
2021/06/24 09:41:59;;;;;;;13.77;12.53;;;;;;;19.77;79.64;100367.22;10347832;28;20310;-63
2021/06/24 09:47:12;;;;;;;;;;;;;;;19.75;80.34;100365.66;10353376;28;20045;-62
2021/06/24 09:52:18;;;;;;;13.27;11.90;;;;;;;19.72;80.16;100372.25;10349468;28;19929;-63
2021/06/24 09:57:24;;;;;;;13.60;12.40;;;;;;;19.68;80.07;100373.66;10332671;28;20533;-63
2021/06/24 10:02:25;;;;;;;14.70;13.27;;;;;;;19.72;80.29;100387.63;10346972;28;20088;-64
2021/06/24 10:07:27;;;;;;;13.73;12.50;;;;;;;19.69;80.72;100382.59;10348862;28;20526;-62
2021/06/24 10:12:29;;;;;;;14.00;12.60;;;;;;;19.71;80.80;100378.72;10347556;28;20766;-60
2021/06/24 10:17:31;;;;;;;13.02;11.82;;;;;;;19.71;80.53;100381.41;10348950;28;20058;-64
2021/06/24 10:22:32;;;;;;;13.25;11.88;;;;;;;19.73;81.12;100378.53;10346221;28;20049;-64
2021/06/24 10:27:37;;;;;;;13.23;11.93;;;;;;;19.77;80.19;100383.41;10350559;28;20112;-62
2021/06/24 10:32:40;;;;;;;11.52;10.52;;;;;;;19.81;80.24;100383.06;10353566;28;20238;-63
2021/06/24 10:37:49;;;;;;;11.70;10.65;;;;;;;19.77;80.45;100387.91;10343099;28;20061;-62
2021/06/24 10:42:53;;;;;;;11.45;10.32;;;;;;;19.81;81.30;100391.16;10346899;28;20050;-62
2021/06/24 10:47:56;;;;;;;11.38;10.35;;;;;;;19.86;81.07;100391.44;10345261;28;20062;-63
2021/06/24 10:53:19;;;;;;;10.98;9.98;;;;;;;19.84;80.47;100382.69;10329938;28;20069;-63
2021/06/24 10:58:20;;;;;;;11.85;10.85;;;;;;;19.88;80.56;100386.72;10352534;28;20045;-63
2021/06/24 11:03:31;;;;;;;10.68;9.77;;;;;;;19.93;80.22;100387.00;10344543;23;20057;-57
2021/06/24 11:08:34;;;;;;;10.80;9.90;;;;;;;19.89;80.36;100375.72;10334617;28;20092;-56
2021/06/24 11:13:36;;;;;;;13.00;11.70;;;;;;;19.94;81.44;100377.88;10304189;28;20058;-57
2021/06/24 11:18:40;;;;;;;11.80;10.70;;;;;;;19.96;80.59;100382.06;10311590;28;20793;-55
2021/06/24 11:23:45;;;;;;;11.60;10.70;;;;;;;19.94;79.98;100377.88;10306089;28;20046;-55
2021/06/24 11:28:53;;;;;;;12.55;11.32;;;;;;;19.94;81.35;100388.69;10307948;28;20054;-55
2021/06/24 11:39:04;;;;;;;12.45;11.25;;;;;;;20.00;80.68;100377.16;10300401;28;20042;-56
2021/06/24 11:44:06;;;;;;;12.52;11.32;;;;;;;20.05;80.33;100380.13;10306281;28;20692;-56
2021/06/24 12:05:17;;;;;;;8.30;7.68;;;;;;;20.25;78.75;100379.63;10307781;28;20670;-54
2021/06/24 12:10:23;;;;;;;7.22;6.57;;;;;;;20.12;78.62;100383.78;10312044;28;20058;-54
2021/06/24 12:15:25;;;;;;;9.73;7.57;;;;;;;19.99;78.17;100363.81;10308241;28;20062;-54
2021/06/24 12:20:27;;;;;;;7.13;6.53;;;;;;;20.03;79.42;100370.56;10314829;28;20046;-53
2021/06/24 12:25:48;;;;;;;6.95;6.35;;;;;;;20.02;80.10;100367.00;10309373;28;20090;-55
2021/06/24 12:30:51;;;;;;;7.60;6.90;;;;;;;20.03;79.72;100360.56;10312789;28;20042;-57
2021/06/24 12:35:53;;;;;;;8.60;7.80;;;;;;;20.06;80.55;100354.81;10316146;28;20141;-58
2021/06/24 12:41:10;;;;;;;7.57;6.93;;;;;;;20.14;79.82;100357.41;10311426;28;20512;-57
2021/06/24 12:46:12;;;;;;;8.45;7.75;;;;;;;20.27;80.02;100339.75;10307917;28;20038;-58
2021/06/24 12:51:16;;;;;;;9.07;8.27;;;;;;;20.50;79.25;100334.25;10315748;28;20833;-55
2021/06/24 12:56:32;;;;;;;7.95;7.22;;;;;;;20.84;78.05;100330.97;10313787;28;20061;-59
2021/06/24 13:01:39;;;;;;;8.80;7.90;;;;;;;21.11;77.03;100331.31;10310760;28;20053;-57
2021/06/24 13:06:46;;;;;;;8.65;7.85;;;;;;;21.41;74.34;100336.63;10312610;28;20060;-55
2021/06/24 13:11:50;;;;;;;8.30;7.60;;;;;;;21.58;73.14;100337.22;10308001;28;20038;-56
2021/06/24 13:16:52;;;;;;;8.02;7.32;;;;;;;21.77;73.47;100324.91;10313374;28;20077;-56
2021/06/24 13:22:05;;;;;;;8.30;7.60;;;;;;;21.72;72.89;100332.75;10312136;28;20134;-56
2021/06/24 13:27:11;;;;;;;9.13;8.23;;;;;;;21.10;74.77;100317.97;10313132;28;20041;-56
2021/06/24 13:32:13;;;;;;;9.52;8.65;;;;;;;21.23;75.56;100319.97;10308109;28;20062;-58
2021/06/24 13:37:19;;;;;;;7.93;7.20;;;;;;;21.26;75.29;100327.69;10312053;28;20050;-57
2021/06/24 13:42:21;;;;;;;7.95;7.32;;;;;;;21.25;75.14;100328.75;10310437;28;20052;-54
2021/06/24 13:47:22;;;;;;;8.18;7.55;;;;;;;21.28;74.83;100312.13;10312558;28;20050;-56
2021/06/24 13:52:24;;;;;;;7.55;6.88;;;;;;;21.19;73.94;100317.63;10308086;28;20049;-57
2021/06/24 13:57:25;;;;;;;8.30;6.50;;;;;;;21.53;73.61;100320.75;10308424;28;20541;-57
2021/06/24 14:02:27;;;;;;;7.85;7.15;;;;;;;21.66;71.23;100298.34;10303938;28;20452;-57
2021/06/24 14:07:28;;;;;;;8.32;7.63;;;;;;;21.93;70.92;100312.09;10309401;28;20049;-57
2021/06/24 14:12:30;;;;;;;7.03;6.43;;;;;;;22.25;69.66;100316.91;10315074;28;20050;-57
2021/06/24 14:17:32;;;;;;;7.90;7.25;;;;;;;22.21;69.47;100304.78;10309206;28;20046;-57
2021/06/24 14:22:33;;;;;;;7.72;6.93;;;;;;;22.36;69.18;100322.88;10308211;28;20050;-57
2021/06/24 14:27:35;;;;;;;8.60;7.45;;;;;;;22.34;68.61;100317.63;10312103;28;20054;-57
2021/06/24 14:32:37;;;;;;;8.55;7.85;;;;;;;22.16;70.12;100301.84;10307706;28;20057;-57
2021/06/24 14:37:39;;;;;;;6.70;6.13;;;;;;;22.02;69.62;100305.50;10306196;28;20104;-57
2021/06/24 14:42:40;;;;;;;7.85;7.18;;;;;;;21.82;69.75;100311.59;10306294;28;20042;-56
2021/06/24 14:47:42;;;;;;;8.60;7.90;;;;;;;21.55;71.80;100302.41;10305514;28;20045;-55
2021/06/24 14:52:43;;;;;;;8.15;7.32;;;;;;;21.38;72.45;100309.94;10308543;28;20056;-57
2021/06/24 14:57:46;;;;;;;9.60;8.63;;;;;;;21.31;73.59;100306.31;10309462;28;20188;-57
2021/06/24 15:02:47;;;;;;;9.77;8.85;;;;;;;21.45;73.07;100299.16;10313401;28;20054;-56
2021/06/24 15:07:49;;;;;;;9.82;8.95;;;;;;;21.74;72.01;100292.78;10301992;28;20053;-57
2021/06/24 15:12:51;;;;;;;8.25;7.55;;;;;;;21.86;71.45;100296.63;10301612;28;22019;-58
2021/06/24 15:17:52;;;;;;;9.48;8.68;;;;;;;21.83;71.41;100301.63;10303462;28;20058;-56
2021/06/24 15:22:55;;;;;;;9.20;8.40;;;;;;;21.63;70.81;100314.97;10308169;28;20141;-56
2021/06/24 15:27:58;;;;;;;9.97;8.97;;;;;;;21.45;72.92;100310.00;10306247;28;20050;-57
2021/06/24 15:33:00;;;;;;;8.13;7.32;;;;;;;21.59;71.53;100319.09;10311834;28;20053;-58
2021/06/24 15:38:04;;;;;;;9.20;8.27;;;;;;;21.50;72.53;100313.84;10304385;28;20050;-56
2021/06/24 15:43:05;;;;;;;;;;;;;;;21.43;73.08;100322.91;10309901;28;20054;-56
2021/06/24 15:48:07;;;;;;;7.93;7.15;;;;;;;21.43;72.97;100306.66;10306130;28;20783;-57
2021/06/24 15:53:13;;;;;;;7.50;6.75;;;;;;;21.39;72.06;100295.34;10301834;28;20052;-56
2021/06/24 15:58:16;;;;;;;7.27;6.47;;;;;;;21.48;72.08;100307.75;10300024;28;20049;-57
2021/06/24 16:03:33;;;;;;;7.60;6.90;;;;;;;21.53;72.13;100272.00;10284160;28;20050;-57
2021/06/24 16:08:36;;;;;;;7.15;6.45;;;;;;;21.69;71.86;100273.56;10290283;28;20065;-58
2021/06/24 16:13:39;;;;;;;6.50;5.90;;;;;;;21.61;71.17;100249.34;10293574;28;20057;-58
2021/06/24 16:18:41;;;;;;;6.80;6.18;;;;;;;21.61;72.65;100262.88;10302878;28;20073;-56
2021/06/24 16:23:43;;;;;;;7.85;6.20;;;;;;;21.80;71.19;100259.50;10298219;28;20050;-56
2021/06/24 16:28:44;;;;;;;6.82;6.13;;;;;;;21.61;71.42;100254.75;10297087;28;20508;-55
2021/06/24 16:33:46;;;;;;;6.63;5.57;;;;;;;21.57;70.84;100242.63;10301796;28;20656;-56
2021/06/24 16:38:49;;;;;;;5.85;5.35;;;;;;;21.57;71.05;100250.75;10301892;28;20046;-56
2021/06/24 16:43:50;;;;;;;6.72;6.18;;;;;;;21.71;70.88;100247.13;10294760;28;20051;-55
2021/06/24 16:48:52;;;;;;;6.93;6.15;;;;;;;21.76;71.24;100252.78;10305620;28;20503;-57
2021/06/24 16:53:54;;;;;;;8.32;5.80;;;;;;;21.84;68.46;100252.66;10304227;28;20115;-54
2021/06/24 16:58:56;;;;;;;5.53;5.00;;;;;;;21.88;68.13;100261.22;10303887;28;20515;-54
2021/06/24 17:03:58;;;;;;;7.32;5.55;;;;;;;21.89;68.35;100249.34;10302394;28;20050;-54
2021/06/24 17:08:59;;;;;;;5.63;5.10;;;;;;;21.84;68.97;100249.94;10303939;28;20050;-54
2021/06/24 17:14:01;;;;;;;6.50;5.50;;;;;;;21.89;69.08;100243.94;10310376;28;20134;-54
2021/06/24 17:19:03;;;;;;;4.53;4.13;;;;;;;21.80;67.14;100239.69;10304883;28;20057;-54
2021/06/24 17:24:05;;;;;;;5.30;4.60;;;;;;;21.66;67.42;100233.31;10309906;28;20053;-54
2021/06/24 17:29:06;;;;;;;5.25;3.63;;;;;;;21.58;68.27;100222.66;10303163;28;20050;-54
2021/06/24 17:34:08;;;;;;;4.30;3.50;;;;;;;21.58;67.65;100228.91;10305803;28;20050;-54
2021/06/24 17:39:09;;;;;;;3.58;3.08;;;;;;;21.71;67.43;100236.31;10307494;28;20049;-54
2021/06/24 17:44:12;;;;;;;3.15;2.50;;;;;;;21.70;67.16;100238.16;10306218;28;23887;-55
2021/06/24 17:49:15;;;;;;;4.87;2.70;;;;;;;21.65;66.25;100240.63;10303832;28;20050;-55
2021/06/24 17:54:19;;;;;;;4.18;2.38;;;;;;;21.36;65.62;100247.88;10303516;28;20615;-55
2021/06/24 17:59:21;;;;;;;2.60;2.40;;;;;;;21.14;67.19;100243.50;10299343;28;20065;-54
2021/06/24 18:04:24;;;;;;;4.05;2.70;;;;;;;21.30;65.55;100255.91;10302815;28;20567;-54
2021/06/24 18:09:26;;;;;;;2.70;2.30;;;;;;;21.37;66.45;100252.22;10308866;28;20058;-55
2021/06/24 18:14:28;;;;;;;3.60;2.28;;;;;;;21.38;65.41;100255.78;10314780;28;20057;-55
2021/06/24 18:19:29;;;;;;;3.45;2.17;;;;;;;21.32;66.40;100256.56;10308620;28;20046;-54
2021/06/24 18:24:32;;;;;;;2.40;2.20;;;;;;;21.26;66.02;100258.19;10307229;28;20057;-54
2021/06/24 18:29:33;;;;;;;4.90;2.97;;;;;;;21.07;66.73;100248.81;10308876;28;20495;-55
2021/06/24 18:34:36;;;;;;;3.20;2.55;;;;;;;21.15;67.53;100267.66;10302692;28;20046;-54
2021/06/24 18:39:37;;;;;;;3.22;2.50;;;;;;;21.06;68.96;100268.78;10304083;28;20403;-54
2021/06/24 18:44:39;;;;;;;4.47;3.10;;;;;;;21.02;69.22;100278.34;10307759;28;20188;-54
2021/06/24 18:49:41;;;;;;;3.47;3.17;;;;;;;20.83;69.71;100275.19;10303812;28;20073;-54
2021/06/24 18:54:42;;;;;;;6.35;3.38;;;;;;;20.82;70.23;100286.22;10307488;28;20458;-54
2021/06/24 18:59:44;;;;;;;4.78;3.50;;;;;;;20.77;71.85;100284.06;10305721;28;20062;-54
2021/06/24 19:04:45;;;;;;;3.83;3.40;;;;;;;20.71;72.10;100287.53;10307737;28;20554;-54
2021/06/24 19:09:47;;;;;;;4.00;3.58;;;;;;;20.52;71.97;100278.09;10305351;28;20064;-55
2021/06/24 19:14:49;;;;;;;5.25;4.30;;;;;;;20.53;72.11;100300.59;10299066;28;20066;-57
2021/06/24 19:19:50;;;;;;;4.80;3.65;;;;;;;20.41;72.54;100301.06;10300856;28;20061;-56
2021/06/24 19:24:52;;;;;;;4.78;4.25;;;;;;;20.33;73.60;100292.19;10300601;28;20062;-58
2021/06/24 19:29:54;;;;;;;5.22;4.18;;;;;;;20.25;74.49;100287.72;10302229;28;20064;-56
2021/06/24 19:34:55;;;;;;;6.05;4.70;;;;;;;20.10;74.88;100288.56;10305532;28;20660;-57
2021/06/24 19:39:57;;;;;;;4.25;3.85;;;;;;;20.05;74.77;100293.66;10298914;28;20423;-58
2021/06/24 19:44:59;;;;;;;6.55;5.13;;;;;;;20.02;75.42;100295.91;10297861;28;20107;-58
2021/06/24 19:50:01;;;;;;;5.65;4.80;;;;;;;19.98;75.10;100308.94;10297868;28;20057;-57
2021/06/24 19:55:04;;;;;;;4.72;3.72;;;;;;;19.97;74.26;100307.28;10299878;28;20050;-58
2021/06/24 20:00:10;;;;;;;4.95;3.90;;;;;;;19.85;73.83;100304.19;10301857;28;20451;-58
2021/06/24 20:05:14;;;;;;;3.10;2.80;;;;;;;19.80;73.09;100309.28;10294510;28;20053;-56
2021/06/24 20:10:16;;;;;;;3.72;2.30;;;;;;;19.77;71.66;100317.72;10297259;28;20042;-56
2021/06/24 20:15:19;;;;;;;3.20;2.30;;;;;;;19.72;72.13;100310.16;10293341;28;20053;-55
2021/06/24 20:20:24;;;;;;;3.67;2.53;;;;;;;19.69;72.11;100307.81;10300020;28;20074;-55
2021/06/24 20:25:28;;;;;;;3.58;2.85;;;;;;;19.62;72.47;100309.56;10301274;28;20062;-55
2021/06/24 20:30:34;;;;;;;4.35;3.38;;;;;;;19.63;73.11;100327.44;10301327;28;20049;-57
2021/06/24 20:35:36;;;;;;;7.97;3.38;;;;;;;19.66;73.62;100318.16;10307289;28;20588;-57
2021/06/24 20:40:37;;;;;;;3.63;3.33;;;;;;;19.66;74.05;100316.28;10308238;28;20065;-58
2021/06/24 20:45:39;;;;;;;3.97;3.30;;;;;;;19.63;75.17;100322.06;10316712;28;20103;-55
2021/06/24 20:50:40;;;;;;;7.60;3.35;;;;;;;19.60;75.44;100322.41;10311752;28;20061;-62
2021/06/24 20:55:48;;;;;;;5.20;3.75;;;;;;;19.56;76.31;100321.09;10309464;28;20054;-56
2021/06/24 21:01:04;;;;;;;5.78;4.47;;;;;;;19.55;76.32;100314.03;10349237;28;20050;-57
2021/06/24 21:06:06;;;;;;;5.25;4.43;;;;;;;19.50;76.50;100311.00;10363793;28;20046;-57
2021/06/24 21:11:09;;;;;;;5.60;5.00;;;;;;;19.45;77.09;100316.13;10339033;28;20062;-56
2021/06/24 21:16:27;;;;;;;6.70;4.30;;;;;;;19.46;76.67;100325.91;10353915;28;20045;-57
2021/06/24 21:21:30;;;;;;;6.03;4.25;;;;;;;19.32;76.81;100308.63;10359343;28;20068;-57
2021/06/24 21:26:31;;;;;;;4.57;4.03;;;;;;;19.27;76.83;100306.47;10351036;28;20054;-57
2021/06/24 21:31:33;;;;;;;6.40;4.43;;;;;;;19.38;76.58;100319.56;10352813;28;20057;-57
2021/06/24 21:36:35;;;;;;;6.18;4.30;;;;;;;19.32;77.05;100325.66;10358996;28;20300;-57
2021/06/24 21:41:36;;;;;;;5.85;4.60;;;;;;;19.22;77.36;100322.34;10356552;28;20046;-56
2021/06/24 21:46:38;;;;;;;5.15;4.63;;;;;;;19.28;77.27;100327.03;10357042;28;20053;-59
2021/06/24 21:51:40;;;;;;;5.57;4.90;;;;;;;19.30;77.51;100322.28;10362867;28;20050;-56
2021/06/24 21:56:41;;;;;;;5.22;4.72;;;;;;;19.34;77.00;100339.81;10365029;28;20057;-55
2021/06/24 22:01:43;;;;;;;8.27;5.95;;;;;;;19.35;77.02;100338.81;10367090;28;20056;-55
2021/06/24 22:06:44;;;;;;;6.90;5.10;;;;;;;19.35;77.11;100340.63;10365616;28;20462;-56
2021/06/24 22:11:46;;;;;;;6.93;5.07;;;;;;;19.22;76.78;100325.06;10364145;28;20443;-57
2021/06/24 22:16:48;;;;;;;5.57;4.95;;;;;;;19.33;76.46;100338.13;10365596;28;20049;-55
2021/06/24 22:21:50;;;;;;;6.10;5.05;;;;;;;19.33;76.63;100340.81;10366279;28;20044;-56
2021/06/24 22:26:52;;;;;;;5.00;4.60;;;;;;;19.23;77.55;100321.31;10362695;28;20049;-55
2021/06/24 22:31:54;;;;;;;6.05;5.40;;;;;;;19.28;77.04;100335.13;10361003;28;20049;-57
2021/06/24 22:36:55;;;;;;;5.30;4.32;;;;;;;19.30;77.40;100335.78;10362859;28;20068;-55
2021/06/24 22:41:57;;;;;;;4.38;3.97;;;;;;;19.29;76.92;100347.63;10359092;28;20635;-56
2021/06/24 22:46:58;;;;;;;5.53;4.80;;;;;;;19.22;77.28;100342.06;10355310;28;20438;-58
2021/06/24 22:52:00;;;;;;;5.00;4.57;;;;;;;19.24;76.73;100347.28;10367425;28;20056;-57
2021/06/24 22:57:02;;;;;;;5.90;4.32;;;;;;;19.22;77.06;100354.75;10361103;28;20041;-55
2021/06/24 23:02:04;;;;;;;6.95;5.18;;;;;;;19.20;77.22;100363.00;10362723;28;20050;-57
2021/06/24 23:07:05;;;;;;;5.28;4.40;;;;;;;19.12;76.81;100348.72;10361945;28;20061;-55
2021/06/24 23:12:07;;;;;;;5.50;4.53;;;;;;;19.08;77.17;100362.56;10349476;28;20053;-57
2021/06/24 23:17:09;;;;;;;5.63;4.30;;;;;;;19.19;76.47;100357.78;10356722;28;21491;-56
2021/06/24 23:22:10;;;;;;;5.30;4.47;;;;;;;18.83;76.97;100347.50;10364615;28;20798;-55
2021/06/24 23:27:12;;;;;;;4.53;4.13;;;;;;;18.97;76.58;100354.84;10353111;28;20148;-56